Amo, Colorado
Current Conditions -  °F | °C
As of 5:30 AM on Sunday 23 Nov 2014 (Local Time) from KSHM Reporting Station
Freezing Rain Freezing Rain  
Wind Chill: 16°   Ceiling: 3400
Heat Index: 30°   Visibility: 10mi
Dew Point: 25°   Wind: 25mph
Humidity: 80%   Direction: 10°N
Pressure: 29.69"   Gusts: 35mph
Location:  39.0051°N, 104.503°W
Report Text: KSHM 231230Z AUTO 01022G30KT 10SM -FZRA OVC034 M01/M04 A2969 RMK AO2
Loading
Personal Weather Stations






























Interactive Weather Map New forecast layout! Learn more

10-Day Weather Forecast

Advertisements
Track Severe Weather on mobile